createdAt,value
2022-09-23T00:02:26.773Z,98507.70
2022-09-23T00:05:58.787Z,98504.45
2022-09-23T00:09:24.489Z,98503.35
2022-09-23T00:13:00.765Z,98497.02
2022-09-23T00:16:38.872Z,98495.94
2022-09-23T00:20:15.813Z,98498.45
2022-09-23T00:24:09.951Z,98502.80
2022-09-23T00:27:30.968Z,98502.19
2022-09-23T00:31:27.257Z,98497.01
2022-09-23T00:34:48.023Z,98497.65
2022-09-23T00:38:24.673Z,98496.67
2022-09-23T00:42:01.536Z,98492.53
2022-09-23T00:45:39.660Z,98492.05
2022-09-23T00:49:30.277Z,98488.36
2022-09-23T00:52:54.230Z,98489.80
2022-09-23T00:56:32.161Z,98487.94
2022-09-23T01:00:24.406Z,98486.35
2022-09-23T01:03:46.545Z,98486.15
2022-09-23T01:07:21.885Z,98484.86
2022-09-23T01:11:45.718Z,98481.14
2022-09-23T01:15:33.405Z,98484.95
2022-09-23T01:19:18.789Z,98485.84
2022-09-23T01:22:54.441Z,98485.28
2022-09-23T01:27:09.528Z,98479.77
2022-09-23T01:30:52.909Z,98476.70
2022-09-23T01:34:26.522Z,98475.48
2022-09-23T01:38:34.195Z,98479.20
2022-09-23T01:42:17.722Z,98484.39
2022-09-23T01:45:54.497Z,98486.86
2022-09-23T01:49:29.050Z,98481.50
2022-09-23T01:52:57.085Z,98484.80
2022-09-23T01:57:01.855Z,98481.27
2022-09-23T02:00:44.038Z,98477.85
2022-09-23T02:04:17.543Z,98481.17
2022-09-23T02:07:53.849Z,98479.15
2022-09-23T02:11:19.589Z,98481.48
2022-09-23T02:15:07.188Z,98474.16
2022-09-23T02:18:42.094Z,98470.52
2022-09-23T02:22:15.547Z,98469.03
2022-09-23T02:25:57.484Z,98473.00
2022-09-23T02:29:23.684Z,98468.13
2022-09-23T02:33:34.477Z,98468.56
2022-09-23T02:37:09.682Z,98467.59
2022-09-23T02:40:38.875Z,98470.86
2022-09-23T02:44:28.319Z,98468.45
2022-09-23T02:48:16.258Z,98472.56
2022-09-23T02:51:38.275Z,98475.67
2022-09-23T02:55:17.988Z,98473.98
2022-09-23T02:58:53.574Z,98476.05
2022-09-23T03:02:52.637Z,98475.14
2022-09-23T03:06:29.535Z,98474.27
2022-09-23T03:10:09.726Z,98469.17
2022-09-23T03:14:17.534Z,98470.92
2022-09-23T03:18:06.415Z,98470.59
2022-09-23T03:21:37.128Z,98468.31
2022-09-23T03:25:26.362Z,98470.77
2022-09-23T03:28:48.580Z,98465.94
2022-09-23T03:32:28.014Z,98466.54
2022-09-23T03:36:26.952Z,98467.14
2022-09-23T03:39:54.228Z,98469.21
2022-09-23T03:43:25.512Z,98474.40
2022-09-23T03:47:03.066Z,98473.96
2022-09-23T03:50:39.304Z,98473.27
2022-09-23T03:54:15.798Z,98470.15
2022-09-23T03:57:52.467Z,98468.20
2022-09-23T04:01:29.793Z,98466.91
2022-09-23T04:05:06.972Z,98467.76
2022-09-23T04:08:42.906Z,98464.72
2022-09-23T04:12:19.575Z,98457.36
2022-09-23T04:15:56.574Z,98456.33
2022-09-23T04:19:33.106Z,98453.83
2022-09-23T04:23:10.052Z,98455.73
2022-09-23T04:26:51.364Z,98453.88
2022-09-23T04:30:23.567Z,98455.47
2022-09-23T04:34:01.011Z,98454.99
2022-09-23T04:37:55.966Z,98457.41
2022-09-23T04:41:34.735Z,98455.02
2022-09-23T04:44:55.126Z,98459.23
2022-09-23T04:48:32.286Z,98454.91
2022-09-23T04:52:08.699Z,98458.03
2022-09-23T04:56:08.756Z,98456.58
2022-09-23T04:59:30.240Z,98455.44
2022-09-23T05:03:07.201Z,98454.34
2022-09-23T05:06:45.398Z,98458.27
2022-09-23T05:10:19.495Z,98462.44
2022-09-23T05:13:56.356Z,98466.09
2022-09-23T05:17:51.958Z,98467.99
2022-09-23T05:21:31.658Z,98466.56
2022-09-23T05:25:10.778Z,98476.36
2022-09-23T05:28:50.636Z,98475.73
2022-09-23T05:32:11.346Z,98476.05
2022-09-23T05:36:07.606Z,98474.61
2022-09-23T05:39:27.816Z,98474.39
2022-09-23T05:43:04.599Z,98481.58
2022-09-23T05:46:41.299Z,98478.75
2022-09-23T05:50:37.168Z,98482.48
2022-09-23T05:53:59.053Z,98484.54
2022-09-23T05:57:35.007Z,98486.29
2022-09-23T06:01:24.898Z,98486.31
2022-09-23T06:05:07.297Z,98485.93
2022-09-23T06:08:27.882Z,98483.85
2022-09-23T06:12:06.515Z,98478.36
2022-09-23T06:15:43.757Z,98472.80
2022-09-23T06:19:18.191Z,98476.63
2022-09-23T06:23:13.691Z,98479.42
2022-09-23T06:26:53.005Z,98477.00
2022-09-23T06:30:33.538Z,98479.51
2022-09-23T06:34:06.086Z,98483.96
2022-09-23T06:37:34.259Z,98482.69
2022-09-23T06:41:12.184Z,98487.47
2022-09-23T06:44:47.497Z,98487.07
2022-09-23T06:48:27.079Z,98489.25
2022-09-23T06:52:01.191Z,98490.72
2022-09-23T06:56:01.942Z,98494.92
2022-09-23T06:59:41.341Z,98497.70
2022-09-23T07:03:05.974Z,98495.45
2022-09-23T07:06:38.507Z,98503.29
2022-09-23T07:10:34.612Z,98500.96
2022-09-23T07:14:13.753Z,98506.33
2022-09-23T07:17:35.076Z,98501.91
2022-09-23T07:21:17.083Z,98507.89
2022-09-23T07:24:48.041Z,98510.00
2022-09-23T07:28:29.176Z,98511.13
2022-09-23T07:32:22.156Z,98512.35
2022-09-23T07:35:42.683Z,98510.51
2022-09-23T07:39:19.718Z,98510.84
2022-09-23T07:43:15.097Z,98511.61
2022-09-23T07:46:37.204Z,98514.90
2022-09-23T07:50:12.197Z,98511.21
2022-09-23T07:53:51.279Z,98505.69
2022-09-23T07:57:25.753Z,98504.45
2022-09-23T08:01:05.505Z,98509.16
2022-09-23T08:04:39.409Z,98506.25
2022-09-23T08:08:17.365Z,98505.89
2022-09-23T08:12:16.254Z,98504.88
2022-09-23T08:15:37.080Z,98497.74
2022-09-23T08:19:14.237Z,98495.89
2022-09-23T08:22:51.378Z,98497.95
2022-09-23T08:26:28.931Z,98497.08
2022-09-23T08:30:23.069Z,98499.61
2022-09-23T08:34:03.037Z,98493.70
2022-09-23T08:37:23.573Z,98489.45
2022-09-23T08:41:27.910Z,98489.96
2022-09-23T08:44:59.762Z,98485.33
2022-09-23T08:48:32.860Z,98488.83
2022-09-23T08:52:19.910Z,98486.58
2022-09-23T08:55:48.732Z,98488.05
2022-09-23T08:59:37.979Z,98483.61
2022-09-23T09:02:59.552Z,98484.14
2022-09-23T09:06:53.459Z,98486.77
2022-09-23T09:10:46.768Z,98486.71
2022-09-23T09:14:27.399Z,98485.31
2022-09-23T09:18:12.214Z,98481.08
2022-09-23T09:21:42.536Z,98481.51
2022-09-23T09:25:36.494Z,98481.95
2022-09-23T09:29:30.842Z,98480.88
2022-09-23T09:33:16.027Z,98471.46
2022-09-23T09:36:50.105Z,98467.87
2022-09-23T09:40:20.394Z,98464.22
2022-09-23T09:43:56.421Z,98459.91
2022-09-23T09:48:11.075Z,98453.80
2022-09-23T09:51:32.530Z,98453.33
2022-09-23T09:55:11.956Z,98451.10
2022-09-23T09:58:51.786Z,98445.64
2022-09-23T10:02:30.648Z,98443.33
2022-09-23T10:05:59.802Z,98442.60
2022-09-23T10:09:38.639Z,98438.98
2022-09-23T10:13:16.280Z,98438.80
2022-09-23T10:17:05.324Z,98437.48
2022-09-23T10:20:36.317Z,98435.67
2022-09-23T10:24:06.541Z,98430.80
2022-09-23T10:27:40.620Z,98424.41
2022-09-23T10:31:30.214Z,98421.45
2022-09-23T10:35:09.619Z,98421.44
2022-09-23T10:38:30.935Z,98418.38
2022-09-23T10:43:02.558Z,98412.54
2022-09-23T10:47:34.313Z,98418.52
2022-09-23T10:50:59.480Z,98421.20
2022-09-23T10:55:21.337Z,98423.66
2022-09-23T10:58:48.478Z,98425.06
2022-09-23T11:03:15.347Z,98425.45
2022-09-23T11:07:20.738Z,98419.20
2022-09-23T11:11:18.445Z,98416.52
2022-09-23T11:14:54.541Z,98409.95
2022-09-23T11:18:22.646Z,98406.86
2022-09-23T11:22:36.798Z,98398.57
2022-09-23T11:26:32.196Z,98398.20
2022-09-23T11:30:19.359Z,98401.23
2022-09-23T11:34:15.449Z,98397.49
2022-09-23T11:38:00.530Z,98396.16
2022-09-23T11:41:38.051Z,98389.30
2022-09-23T11:45:07.035Z,98382.96
2022-09-23T11:48:46.304Z,98379.65
2022-09-23T11:52:47.466Z,98375.41
2022-09-23T11:56:33.626Z,98377.66
2022-09-23T12:00:26.075Z,98368.49
2022-09-23T12:04:20.577Z,98360.52
2022-09-23T12:07:57.850Z,98360.53
2022-09-23T12:11:49.979Z,98357.58
2022-09-23T12:15:26.416Z,98352.21
2022-09-23T12:19:04.557Z,98348.41
2022-09-23T12:23:09.140Z,98345.92
2022-09-23T12:26:32.632Z,98338.94
2022-09-23T12:30:30.060Z,98339.73
2022-09-23T12:33:53.799Z,98334.84
2022-09-23T12:37:38.941Z,98331.86
2022-09-23T12:41:28.707Z,98331.13
2022-09-23T12:44:50.732Z,98323.91
2022-09-23T12:48:48.637Z,98324.60
2022-09-23T12:52:12.163Z,98315.40
2022-09-23T12:55:47.001Z,98315.39
2022-09-23T12:59:50.825Z,98309.69
2022-09-23T13:03:31.768Z,98312.98
2022-09-23T13:07:16.418Z,98309.73
2022-09-23T13:10:41.416Z,98306.19
2022-09-23T13:14:33.842Z,98302.77
2022-09-23T13:18:23.210Z,98297.73
2022-09-23T13:22:08.241Z,98291.91
2022-09-23T13:25:50.819Z,98286.04
2022-09-23T13:29:25.850Z,98282.61
2022-09-23T13:33:16.041Z,98274.23
2022-09-23T13:36:55.574Z,98272.66
2022-09-23T13:40:36.411Z,98271.35
2022-09-23T13:43:59.582Z,98270.42
2022-09-23T13:47:59.548Z,98260.54
2022-09-23T13:51:39.136Z,98261.90
2022-09-23T13:54:59.918Z,98263.45
2022-09-23T13:58:36.678Z,98261.73
2022-09-23T14:02:16.872Z,98259.17
2022-09-23T14:06:14.038Z,98265.46
2022-09-23T14:09:36.609Z,98264.79
2022-09-23T14:13:41.567Z,98259.10
2022-09-23T14:17:03.112Z,98253.76
2022-09-23T14:20:50.293Z,98246.15
2022-09-23T14:24:38.055Z,98241.86
2022-09-23T14:28:00.678Z,98242.94
2022-09-23T14:31:36.596Z,98247.05
2022-09-23T14:35:22.344Z,98244.73
2022-09-23T14:38:52.760Z,98239.60
2022-09-23T14:42:27.580Z,98237.10
2022-09-23T14:46:03.681Z,98235.02
2022-09-23T14:50:07.713Z,98235.35
2022-09-23T14:53:46.392Z,98231.21
2022-09-23T14:57:29.340Z,98231.31
2022-09-23T15:00:58.555Z,98230.27
2022-09-23T15:04:45.383Z,98229.38
2022-09-23T15:08:06.308Z,98226.92
2022-09-23T15:12:06.299Z,98229.14
2022-09-23T15:15:30.764Z,98225.74
2022-09-23T15:19:04.040Z,98224.42
2022-09-23T15:22:59.310Z,98223.48
2022-09-23T15:26:40.698Z,98224.83
2022-09-23T15:30:15.443Z,98226.69
2022-09-23T15:33:57.675Z,98220.92
2022-09-23T15:37:18.475Z,98220.67
2022-09-23T15:40:55.647Z,98220.09
2022-09-23T15:44:32.772Z,98220.77
2022-09-23T15:48:13.986Z,98214.05
2022-09-23T15:51:45.536Z,98216.24
2022-09-23T15:55:41.295Z,98217.19
2022-09-23T15:59:02.024Z,98211.60
2022-09-23T16:02:57.676Z,98210.54
2022-09-23T16:06:20.333Z,98206.27
2022-09-23T16:09:58.674Z,98204.00
2022-09-23T16:13:32.518Z,98203.77
2022-09-23T16:17:13.990Z,98203.58
2022-09-23T16:21:07.047Z,98206.50
2022-09-23T16:24:28.444Z,98201.77
2022-09-23T16:28:04.927Z,98205.36
2022-09-23T16:32:00.453Z,98208.09
2022-09-23T16:35:27.001Z,98207.40
2022-09-23T16:39:17.760Z,98213.19
2022-09-23T16:42:39.307Z,98213.11
2022-09-23T16:46:17.425Z,98215.40
2022-09-23T16:49:52.496Z,98209.39
2022-09-23T16:53:49.048Z,98211.92
2022-09-23T16:57:29.391Z,98209.04
2022-09-23T17:01:15.415Z,98210.17
2022-09-23T17:04:37.583Z,98212.27
2022-09-23T17:08:33.633Z,98209.34
2022-09-23T17:12:16.859Z,98209.80
2022-09-23T17:15:41.525Z,98210.26
2022-09-23T17:19:34.132Z,98209.00
2022-09-23T17:22:55.332Z,98207.17
2022-09-23T17:26:31.729Z,98205.34
2022-09-23T17:30:09.361Z,98203.77
2022-09-23T17:33:45.147Z,98201.92
2022-09-23T17:37:40.752Z,98200.60
2022-09-23T17:41:02.516Z,98204.51
2022-09-23T17:44:58.761Z,98209.08
2022-09-23T17:48:20.279Z,98213.01
2022-09-23T17:51:57.023Z,98213.98
2022-09-23T17:55:33.220Z,98216.59
2022-09-23T17:59:29.019Z,98216.83
2022-09-23T18:03:08.732Z,98216.52
2022-09-23T18:06:31.906Z,98219.00
2022-09-23T18:10:24.844Z,98216.88
2022-09-23T18:13:52.553Z,98220.23
2022-09-23T18:17:21.690Z,98220.17
2022-09-23T18:21:03.257Z,98221.21
2022-09-23T18:24:54.149Z,98222.31
2022-09-23T18:28:14.577Z,98225.70
2022-09-23T18:31:52.384Z,98228.50
2022-09-23T18:35:28.633Z,98224.88
2022-09-23T18:39:05.398Z,98224.20
2022-09-23T18:42:41.909Z,98226.60
2022-09-23T18:46:21.215Z,98224.02
2022-09-23T18:50:33.129Z,98219.32
2022-09-23T18:54:12.690Z,98219.39
2022-09-23T18:57:33.547Z,98216.72
2022-09-23T19:01:10.470Z,98207.77
2022-09-23T19:04:47.781Z,98206.19
2022-09-23T19:08:24.123Z,98206.89
2022-09-23T19:12:03.482Z,98208.55
2022-09-23T19:15:37.354Z,98206.40
2022-09-23T19:19:33.037Z,98211.48
2022-09-23T19:22:54.309Z,98214.20
2022-09-23T19:26:37.740Z,98218.61
2022-09-23T19:30:07.772Z,98214.73
2022-09-23T19:33:51.558Z,98208.52
2022-09-23T19:37:21.079Z,98209.20
2022-09-23T19:41:16.254Z,98208.44
2022-09-23T19:44:40.121Z,98207.44
2022-09-23T19:48:13.988Z,98207.66
2022-09-23T19:51:51.561Z,98208.96
2022-09-23T19:55:28.602Z,98211.98
2022-09-23T19:59:23.346Z,98212.35
2022-09-23T20:03:02.845Z,98209.67
2022-09-23T20:06:42.589Z,98211.05
2022-09-23T20:10:03.233Z,98209.38
2022-09-23T20:13:41.449Z,98204.23
2022-09-23T20:17:19.186Z,98205.65
2022-09-23T20:21:14.707Z,98203.50
2022-09-23T20:24:35.581Z,98198.97
2022-09-23T20:28:31.113Z,98191.96
2022-09-23T20:31:51.354Z,98192.17
2022-09-23T20:35:32.996Z,98189.05
2022-09-23T20:39:10.127Z,98187.84
2022-09-23T20:42:41.586Z,98183.57
2022-09-23T20:46:18.539Z,98183.41
2022-09-23T20:50:14.106Z,98180.08
2022-09-23T20:53:53.342Z,98179.84
2022-09-23T20:57:15.210Z,98182.42
2022-09-23T21:01:10.740Z,98178.66
2022-09-23T21:04:50.179Z,98182.11
2022-09-23T21:08:12.553Z,98183.40
2022-09-23T21:11:47.136Z,98180.54
2022-09-23T21:15:24.134Z,98183.71
2022-09-23T21:19:20.235Z,98183.61
2022-09-23T21:22:40.808Z,98183.69
2022-09-23T21:26:36.631Z,98185.34
2022-09-23T21:29:58.981Z,98184.86
2022-09-23T21:33:36.753Z,98186.32
2022-09-23T21:37:11.638Z,98186.66
2022-09-23T21:41:10.400Z,98188.81
2022-09-23T21:44:31.442Z,98187.31
2022-09-23T21:48:08.191Z,98183.75
2022-09-23T21:51:44.836Z,98185.74
2022-09-23T21:55:40.396Z,98187.60
2022-09-23T21:59:20.010Z,98189.47
2022-09-23T22:02:59.269Z,98189.27
2022-09-23T22:06:22.997Z,98189.27
2022-09-23T22:09:56.688Z,98188.13
2022-09-23T22:13:34.928Z,98185.71
2022-09-23T22:17:12.289Z,98183.03
2022-09-23T22:20:47.818Z,98181.18
2022-09-23T22:24:23.791Z,98184.22
2022-09-23T22:28:19.387Z,98181.50
2022-09-23T22:31:59.287Z,98172.91
2022-09-23T22:35:20.640Z,98169.80
2022-09-23T22:38:59.268Z,98166.34
2022-09-23T22:42:34.814Z,98167.09
2022-09-23T22:46:11.109Z,98162.63
2022-09-23T22:50:08.464Z,98160.85
2022-09-23T22:53:48.793Z,98160.47
2022-09-23T22:57:10.106Z,98158.33
2022-09-23T23:00:46.224Z,98156.48
2022-09-23T23:04:23.422Z,98150.30
2022-09-23T23:08:18.744Z,98150.60
2022-09-23T23:11:58.443Z,98155.38
2022-09-23T23:15:19.006Z,98155.64
2022-09-23T23:19:16.211Z,98158.95
2022-09-23T23:22:36.492Z,98156.55
2022-09-23T23:26:33.494Z,98156.08
2022-09-23T23:30:13.083Z,98149.97
2022-09-23T23:33:53.467Z,98145.86
2022-09-23T23:37:32.728Z,98136.64
2022-09-23T23:40:53.757Z,98136.34
2022-09-23T23:44:34.461Z,98135.48
2022-09-23T23:48:28.097Z,98137.48
2022-09-23T23:51:49.079Z,98136.67
2022-09-23T23:55:44.924Z,98134.41
2022-09-23T23:59:05.968Z,98132.29
